Time;durP1;ratioP1;P1;durP2;ratioP2;P2;SDS_P1;SDS_P2;PMS_P1;PMS_P2;Temp;Humidity;BMP_temperature;BMP_pressure;BME280_temperature;BME280_humidity;BME280_pressure;Samples;Min_cycle;Max_cycle;Signal;HPM_P1;HPM_P2
2023/01/19 00:02:11;;;;;;;9.77;8.77;;;4.60;39.30;;;;;;10501235;28;20816;-80
2023/01/19 00:07:16;;;;;;;11.37;8.87;;;4.60;39.30;;;;;;10500601;28;20251;-80
2023/01/19 00:12:19;;;;;;;9.77;8.77;;;4.60;39.50;;;;;;10499390;28;20839;-80
2023/01/19 00:17:22;;;;;;;9.50;8.60;;;4.70;39.50;;;;;;10501337;28;20228;-80
2023/01/19 00:22:27;;;;;;;9.87;8.90;;;4.60;39.30;;;;;;10502339;28;20761;-80
2023/01/19 00:27:33;;;;;;;9.23;8.33;;;4.60;39.40;;;;;;10498688;28;20232;-80
2023/01/19 00:32:37;;;;;;;9.23;8.20;;;4.70;39.30;;;;;;10501699;28;20228;-80
2023/01/19 00:37:44;;;;;;;9.90;7.80;;;4.70;39.30;;;;;;10500322;28;20581;-80
2023/01/19 00:42:48;;;;;;;9.83;7.83;;;4.70;39.20;;;;;;10501038;28;20227;-80
2023/01/19 00:47:53;;;;;;;8.53;7.73;;;4.70;39.10;;;;;;10500041;28;20227;-80
2023/01/19 00:52:59;;;;;;;9.33;8.43;;;4.90;39.30;;;;;;10500165;28;20243;-80
2023/01/19 00:58:03;;;;;;;8.60;7.67;;;4.70;39.20;;;;;;10500028;28;20251;-80
2023/01/19 01:03:06;;;;;;;9.50;8.50;;;4.80;39.10;;;;;;10499877;28;20239;-80
2023/01/19 01:08:12;;;;;;;8.87;7.97;;;4.80;39.10;;;;;;10497204;28;20966;-79
2023/01/19 01:13:15;;;;;;;9.70;8.43;;;4.80;39.00;;;;;;10499586;28;20719;-80
2023/01/19 01:18:25;;;;;;;8.80;7.73;;;4.80;38.80;;;;;;10499737;28;20282;-80
2023/01/19 01:23:29;;;;;;;9.00;7.80;;;4.80;38.80;;;;;;10499733;28;20240;-80
2023/01/19 01:28:33;;;;;;;7.73;6.93;;;4.70;38.90;;;;;;10499755;28;20225;-80
2023/01/19 01:33:36;;;;;;;8.83;7.17;;;4.70;38.90;;;;;;10498265;28;20232;-80
2023/01/19 01:38:43;;;;;;;6.97;6.27;;;4.80;39.00;;;;;;10497168;28;20566;-80
2023/01/19 01:43:49;;;;;;;7.30;6.70;;;4.80;39.00;;;;;;10498193;28;20242;-80
2023/01/19 01:48:57;;;;;;;6.73;6.13;;;4.80;38.70;;;;;;10498405;28;20227;-80
2023/01/19 01:54:15;;;;;;;8.07;6.70;;;4.80;38.90;;;;;;10496700;28;20236;-79
2023/01/19 01:59:25;;;;;;;8.03;6.10;;;4.80;38.90;;;;;;10498887;28;20615;-79
2023/01/19 02:04:30;;;;;;;7.47;6.23;;;4.80;38.70;;;;;;10498041;28;20263;-79
2023/01/19 02:14:57;;;;;;;7.53;6.77;;;4.80;38.80;;;;;;10498113;28;20319;-80
2023/01/19 02:20:00;;;;;;;8.70;6.80;;;4.80;38.70;;;;;;10498945;28;20250;-80
2023/01/19 02:25:07;;;;;;;8.00;7.00;;;4.80;38.70;;;;;;10499732;28;20307;-80
2023/01/19 02:30:12;;;;;;;7.70;7.00;;;4.80;38.80;;;;;;10498726;28;20232;-79
2023/01/19 02:35:15;;;;;;;8.73;7.83;;;4.80;38.70;;;;;;10506568;28;20708;-78
2023/01/19 02:40:23;;;;;;;9.07;7.60;;;4.80;38.80;;;;;;10507588;28;20308;-79
2023/01/19 02:45:27;;;;;;;8.30;7.50;;;4.80;38.90;;;;;;10501534;28;20234;-79
2023/01/19 02:50:45;;;;;;;9.10;8.07;;;4.80;38.80;;;;;;10507843;28;20231;-79
2023/01/19 02:55:57;;;;;;;8.40;7.63;;;4.80;38.80;;;;;;10507522;28;20239;-79
2023/01/19 03:01:11;;;;;;;7.80;6.80;;;4.70;38.90;;;;;;10504612;28;20226;-79
2023/01/19 03:06:24;;;;;;;8.33;7.53;;;4.70;39.00;;;;;;10505973;28;20287;-79
2023/01/19 03:11:37;;;;;;;8.90;8.00;;;4.70;39.00;;;;;;10506611;28;20246;-79
2023/01/19 03:16:43;;;;;;;9.07;8.13;;;4.70;38.90;;;;;;10506071;28;20597;-80
2023/01/19 03:21:50;;;;;;;10.17;8.20;;;4.70;38.90;;;;;;10503405;28;20263;-80
2023/01/19 03:26:59;;;;;;;9.20;8.30;;;4.60;38.80;;;;;;10506317;28;20598;-79
2023/01/19 03:32:07;;;;;;;8.67;7.90;;;4.60;38.90;;;;;;10505794;28;20311;-79
2023/01/19 03:37:13;;;;;;;9.30;7.87;;;4.60;38.90;;;;;;10503718;28;20259;-80
2023/01/19 03:42:19;;;;;;;9.03;8.13;;;4.60;38.90;;;;;;10503691;28;20232;-79
2023/01/19 03:47:23;;;;;;;8.33;7.53;;;4.60;38.90;;;;;;10505950;28;20232;-79
2023/01/19 03:52:28;;;;;;;9.33;8.17;;;4.60;38.80;;;;;;10504974;28;20655;-79
2023/01/19 03:57:33;;;;;;;8.17;7.47;;;4.60;38.80;;;;;;10505369;28;20293;-79
2023/01/19 04:02:36;;;;;;;9.37;7.83;;;4.60;38.70;;;;;;10505013;28;20232;-79
2023/01/19 04:07:39;;;;;;;8.90;7.97;;;4.50;38.60;;;;;;10504593;28;20255;-79
2023/01/19 04:12:44;;;;;;;7.60;6.90;;;4.50;38.70;;;;;;10503251;28;20224;-78
2023/01/19 04:17:47;;;;;;;9.17;8.27;;;4.50;38.70;;;;;;10500984;28;20716;-79
2023/01/19 04:22:50;;;;;;;8.53;7.67;;;4.50;38.60;;;;;;10502590;28;20235;-79
2023/01/19 04:27:56;;;;;;;8.50;7.70;;;4.40;38.50;;;;;;10503001;28;20224;-79
2023/01/19 04:32:59;;;;;;;11.10;8.93;;;4.40;38.50;;;;;;10501643;28;20722;-79
2023/01/19 04:38:03;;;;;;;10.87;9.40;;;4.40;38.40;;;;;;10502131;28;20612;-79
2023/01/19 04:43:08;;;;;;;14.20;10.83;;;4.40;38.60;;;;;;10501428;28;20224;-79
2023/01/19 04:48:12;;;;;;;10.20;9.07;;;4.30;38.70;;;;;;10498805;28;20223;-79
2023/01/19 04:53:17;;;;;;;10.83;8.97;;;4.40;38.50;;;;;;10504903;28;20235;-79
2023/01/19 04:58:21;;;;;;;10.07;9.10;;;4.30;38.20;;;;;;10499764;28;20239;-79
2023/01/19 05:03:25;;;;;;;8.80;7.90;;;4.20;38.30;;;;;;10500987;28;20251;-78
2023/01/19 05:08:29;;;;;;;10.03;9.03;;;4.10;38.40;;;;;;10501026;28;20275;-78
2023/01/19 05:13:35;;;;;;;9.43;8.47;;;4.10;38.50;;;;;;10499880;28;20234;-77
2023/01/19 05:18:38;;;;;;;10.87;9.00;;;4.10;38.40;;;;;;10497322;28;20224;-77
2023/01/19 05:23:41;;;;;;;9.77;8.87;;;4.00;38.40;;;;;;10494844;28;20232;-78
2023/01/19 05:28:46;;;;;;;9.07;8.03;;;3.90;38.40;;;;;;10497051;28;20231;-78
2023/01/19 05:33:49;;;;;;;10.70;8.70;;;4.00;38.60;;;;;;10495585;28;20231;-77
2023/01/19 05:38:52;;;;;;;8.80;7.90;;;3.80;38.50;;;;;;10491769;28;20224;-76
2023/01/19 05:43:57;;;;;;;8.63;7.73;;;3.70;38.50;;;;;;10494462;28;20240;-76
2023/01/19 05:49:02;;;;;;;9.30;8.40;;;3.70;38.60;;;;;;10488387;28;20242;-77
2023/01/19 05:54:07;;;;;;;14.17;11.23;;;3.50;38.50;;;;;;10496657;28;20238;-78
2023/01/19 05:59:11;;;;;;;17.03;14.17;;;3.50;38.60;;;;;;10489397;28;20239;-78
2023/01/19 06:04:14;;;;;;;17.47;13.43;;;3.70;38.90;;;;;;10498578;28;20624;-78
2023/01/19 06:09:18;;;;;;;11.83;10.27;;;3.50;38.60;;;;;;10499049;28;20232;-79
2023/01/19 06:14:22;;;;;;;13.47;10.03;;;3.50;38.70;;;;;;10496354;28;20688;-79
2023/01/19 06:19:25;;;;;;;9.53;8.57;;;3.30;38.60;;;;;;10499765;28;20235;-79
2023/01/19 06:24:29;;;;;;;9.57;8.50;;;3.30;38.90;;;;;;10491321;28;20236;-77
2023/01/19 06:29:34;;;;;;;10.67;9.67;;;3.30;40.10;;;;;;10490361;28;20232;-76
2023/01/19 06:34:39;;;;;;;9.57;8.60;;;3.30;39.40;;;;;;10492040;28;20286;-77
2023/01/19 06:39:44;;;;;;;9.70;8.80;;;3.30;39.50;;;;;;10493465;28;20239;-76
2023/01/19 06:44:48;;;;;;;14.40;10.60;;;3.40;38.80;;;;;;10491867;28;20315;-76
2023/01/19 06:49:52;;;;;;;17.67;13.00;;;3.30;38.70;;;;;;10492167;28;20224;-77
2023/01/19 06:54:56;;;;;;;14.90;9.63;;;3.20;38.60;;;;;;10492110;28;20311;-76
2023/01/19 07:00:04;;;;;;;12.17;10.97;;;3.20;38.70;;;;;;10491645;28;20236;-77
2023/01/19 07:05:08;;;;;;;12.47;10.33;;;3.20;38.70;;;;;;10491669;28;20224;-77
2023/01/19 07:10:14;;;;;;;20.47;14.83;;;3.20;38.70;;;;;;10482638;28;20254;-77
2023/01/19 07:15:21;;;;;;;16.70;12.87;;;3.20;38.80;;;;;;10492021;28;20267;-76
2023/01/19 07:20:24;;;;;;;14.10;10.87;;;3.20;38.80;;;;;;10496910;28;20323;-76
2023/01/19 07:25:27;;;;;;;10.73;9.37;;;3.40;38.70;;;;;;10501574;28;20236;-76
2023/01/19 07:30:32;;;;;;;11.60;9.70;;;3.20;38.50;;;;;;10492099;28;20354;-77
2023/01/19 07:35:35;;;;;;;11.83;10.20;;;3.30;38.60;;;;;;10491269;28;20319;-76
2023/01/19 07:40:38;;;;;;;9.97;8.97;;;3.20;38.60;;;;;;10491750;28;20231;-76
2023/01/19 07:45:43;;;;;;;11.23;9.17;;;3.10;38.60;;;;;;10490762;28;20242;-77
2023/01/19 07:50:47;;;;;;;9.67;8.67;;;3.00;38.70;;;;;;10488948;28;20294;-75
2023/01/19 07:55:55;;;;;;;10.67;9.60;;;3.10;39.00;;;;;;10490857;28;20759;-78
2023/01/19 08:00:59;;;;;;;10.17;9.17;;;3.00;39.10;;;;;;10489935;28;20729;-76
2023/01/19 08:06:04;;;;;;;8.63;7.73;;;3.10;39.10;;;;;;10482047;28;20221;-77
2023/01/19 08:11:07;;;;;;;10.30;9.27;;;3.20;38.90;;;;;;10473690;28;20228;-75
2023/01/19 08:16:11;;;;;;;9.33;8.43;;;3.20;38.80;;;;;;10479977;28;20240;-75
2023/01/19 08:21:15;;;;;;;8.90;8.00;;;3.20;38.90;;;;;;10487064;28;20228;-76
2023/01/19 08:26:19;;;;;;;8.90;8.00;;;3.30;38.90;;;;;;10488386;28;20228;-75
2023/01/19 08:31:25;;;;;;;8.87;7.77;;;3.30;38.90;;;;;;10487192;28;20240;-76
2023/01/19 08:36:28;;;;;;;8.77;7.87;;;3.30;39.00;;;;;;10488400;28;20228;-75
2023/01/19 08:41:31;;;;;;;8.57;7.47;;;3.20;38.90;;;;;;10488255;28;20594;-75
2023/01/19 08:46:36;;;;;;;9.60;8.13;;;3.30;39.10;;;;;;10485899;28;20718;-76
2023/01/19 08:51:39;;;;;;;8.07;7.27;;;3.40;39.10;;;;;;10493659;28;20311;-76
2023/01/19 08:56:42;;;;;;;7.87;6.87;;;3.40;39.10;;;;;;10494910;28;20244;-77
2023/01/19 09:01:46;;;;;;;7.93;7.17;;;3.50;39.60;;;;;;10495859;28;20228;-77
2023/01/19 09:06:50;;;;;;;8.07;7.30;;;3.60;38.80;;;;;;10499256;28;20227;-78
2023/01/19 09:11:54;;;;;;;7.93;7.13;;;3.70;38.80;;;;;;10497440;28;20228;-75
2023/01/19 09:16:59;;;;;;;8.10;7.30;;;3.70;38.60;;;;;;10495439;28;20590;-76
2023/01/19 09:22:02;;;;;;;9.73;8.27;;;3.80;38.40;;;;;;10495383;28;20251;-76
2023/01/19 09:27:05;;;;;;;8.40;7.57;;;3.80;38.20;;;;;;10495409;28;20236;-77
2023/01/19 09:32:10;;;;;;;8.63;7.73;;;3.90;38.20;;;;;;10493871;28;20228;-76
2023/01/19 09:37:14;;;;;;;8.93;8.10;;;3.90;38.00;;;;;;10488524;28;20224;-76
2023/01/19 09:42:24;;;;;;;8.77;7.83;;;3.90;38.10;;;;;;10492555;28;20236;-76
2023/01/19 09:47:31;;;;;;;8.67;7.40;;;3.90;38.00;;;;;;10492944;28;20224;-77
2023/01/19 09:52:39;;;;;;;8.43;7.60;;;4.00;38.00;;;;;;10491055;28;20586;-76
2023/01/19 09:57:43;;;;;;;8.83;7.93;;;4.00;38.20;;;;;;10490637;28;20729;-76
2023/01/19 10:02:51;;;;;;;8.60;7.80;;;4.00;38.00;;;;;;10490540;28;20331;-76
2023/01/19 10:08:09;;;;;;;10.20;8.13;;;4.10;38.70;;;;;;10488687;28;20232;-76
2023/01/19 10:13:25;;;;;;;8.17;7.13;;;4.10;37.90;;;;;;10481857;28;20282;-76
2023/01/19 10:18:46;;;;;;;7.77;6.97;;;4.20;37.90;;;;;;10481371;28;20231;-75
2023/01/19 10:23:53;;;;;;;7.47;6.77;;;4.30;37.80;;;;;;10488772;28;20227;-76
2023/01/19 10:29:02;;;;;;;7.80;7.00;;;4.40;38.30;;;;;;10493592;28;20239;-75
2023/01/19 10:34:09;;;;;;;8.27;7.27;;;4.50;37.70;;;;;;10500183;28;20256;-75
2023/01/19 10:39:17;;;;;;;7.07;6.47;;;4.70;37.50;;;;;;10493183;28;20259;-75
2023/01/19 10:44:26;;;;;;;8.30;7.50;;;4.80;37.20;;;;;;10488094;28;20294;-76
2023/01/19 10:49:37;;;;;;;7.60;6.80;;;4.80;36.60;;;;;;10483068;28;20232;-77
2023/01/19 10:54:43;;;;;;;8.93;8.03;;;4.80;36.60;;;;;;10481521;28;20228;-78
2023/01/19 10:59:49;;;;;;;8.77;7.97;;;4.80;36.60;;;;;;10486099;28;20220;-77
2023/01/19 11:04:56;;;;;;;9.10;8.20;;;4.80;36.90;;;;;;10485854;28;20239;-78
2023/01/19 11:10:19;;;;;;;8.00;7.23;;;4.80;37.00;;;;;;10488373;28;20228;-78
2023/01/19 11:15:28;;;;;;;8.47;7.57;;;4.80;37.00;;;;;;10483705;28;20703;-77
2023/01/19 11:20:48;;;;;;;7.60;6.73;;;4.90;37.50;;;;;;10494510;28;20220;-79
2023/01/19 11:25:53;;;;;;;7.60;6.80;;;5.00;36.80;;;;;;10491683;28;20228;-79
2023/01/19 11:31:00;;;;;;;8.30;7.50;;;5.00;37.20;;;;;;10489982;28;20312;-79
2023/01/19 11:36:15;;;;;;;7.27;6.57;;;5.10;37.00;;;;;;10490402;28;20219;-78
2023/01/19 11:41:22;;;;;;;8.00;7.20;;;5.20;37.00;;;;;;10483890;28;20770;-79
2023/01/19 11:46:32;;;;;;;8.30;6.90;;;5.30;37.00;;;;;;10490353;28;20259;-80
2023/01/19 11:51:52;;;;;;;8.07;7.00;;;5.40;37.10;;;;;;10492621;28;20228;-79
2023/01/19 11:56:58;;;;;;;7.63;6.90;;;5.40;37.10;;;;;;10496007;28;20266;-80
2023/01/19 12:02:13;;;;;;;7.73;6.93;;;5.50;37.20;;;;;;10493946;28;20258;-82
2023/01/19 12:07:23;;;;;;;7.90;7.03;;;5.50;37.20;;;;;;10490780;28;20303;-79
2023/01/19 12:12:30;;;;;;;7.63;6.93;;;5.60;37.30;;;;;;10491359;28;20224;-80
2023/01/19 12:17:36;;;;;;;7.63;6.93;;;5.70;37.40;;;;;;10497331;28;20220;-79
2023/01/19 12:22:52;;;;;;;7.57;6.87;;;5.80;37.40;;;;;;10496352;28;20232;-80
2023/01/19 12:27:56;;;;;;;7.73;6.63;;;5.90;36.70;;;;;;10498705;28;20228;-79
2023/01/19 12:33:21;;;;;;;7.40;6.60;;;6.00;37.20;;;;;;10499131;28;20246;-80
2023/01/19 12:38:40;;;;;;;7.07;6.37;;;6.00;36.40;;;;;;10498736;28;20254;-80
2023/01/19 12:43:44;;;;;;;6.93;6.33;;;6.10;36.10;;;;;;10497743;28;20224;-80
2023/01/19 12:48:47;;;;;;;7.30;6.50;;;6.20;37.00;;;;;;10498039;28;20353;-80
2023/01/19 12:53:55;;;;;;;6.87;6.07;;;6.20;36.90;;;;;;10500113;28;20224;-79
2023/01/19 12:58:58;;;;;;;6.73;5.87;;;6.30;36.40;;;;;;10496978;28;20228;-81
2023/01/19 13:04:05;;;;;;;6.90;4.93;;;6.30;36.50;;;;;;10496161;28;20757;-79
2023/01/19 13:09:31;;;;;;;5.73;5.23;;;6.20;36.60;;;;;;10492150;28;20715;-81
2023/01/19 13:14:37;;;;;;;5.77;5.03;;;6.10;35.60;;;;;;10493675;28;20220;-81
2023/01/19 13:20:05;;;;;;;7.03;6.40;;;6.10;36.40;;;;;;10494528;28;20326;-81
2023/01/19 13:25:12;;;;;;;6.20;5.60;;;6.10;35.50;;;;;;10494618;28;20305;-81
2023/01/19 13:30:17;;;;;;;5.97;5.43;;;6.10;36.00;;;;;;10489916;28;20225;-79
2023/01/19 13:35:22;;;;;;;6.20;5.30;;;6.10;35.80;;;;;;10491543;28;20322;-79
2023/01/19 13:40:37;;;;;;;8.03;6.43;;;6.10;35.70;;;;;;10494837;28;20232;-80
2023/01/19 13:45:40;;;;;;;6.20;5.60;;;6.10;35.00;;;;;;10491242;28;20299;-80
2023/01/19 13:50:57;;;;;;;6.63;6.00;;;6.10;35.90;;;;;;10495620;28;20224;-80
2023/01/19 13:56:09;;;;;;;6.13;5.53;;;6.10;35.10;;;;;;10492632;28;20720;-79
2023/01/19 14:01:22;;;;;;;7.13;6.43;;;6.10;35.40;;;;;;10494627;28;20235;-81
2023/01/19 14:06:37;;;;;;;6.73;5.70;;;6.10;35.10;;;;;;10497320;28;20233;-80
2023/01/19 14:11:42;;;;;;;7.13;6.43;;;6.10;35.10;;;;;;10494869;28;20258;-81
2023/01/19 14:16:45;;;;;;;7.80;7.00;;;6.00;35.40;;;;;;10493298;28;21044;-80
2023/01/19 14:21:59;;;;;;;7.10;6.40;;;6.00;35.80;;;;;;10493632;28;20238;-80
2023/01/19 14:27:21;;;;;;;6.87;6.17;;;6.00;35.30;;;;;;10488412;28;20235;-80
2023/01/19 14:32:26;;;;;;;6.80;6.10;;;5.90;35.20;;;;;;10501493;28;20236;-80
2023/01/19 14:37:31;;;;;;;6.97;5.87;;;5.90;35.80;;;;;;10496117;28;20239;-80
2023/01/19 14:42:38;;;;;;;7.27;6.27;;;5.90;35.80;;;;;;10502792;28;20323;-79
2023/01/19 14:47:44;;;;;;;5.97;5.37;;;5.90;35.80;;;;;;10491928;28;20591;-79
2023/01/19 14:52:54;;;;;;;6.37;5.77;;;5.90;36.10;;;;;;10501697;28;20228;-79
2023/01/19 14:58:01;;;;;;;6.63;6.03;;;6.00;36.00;;;;;;10492066;28;20228;-80
2023/01/19 15:03:04;;;;;;;5.50;5.00;;;6.10;35.80;;;;;;10503770;28;20350;-79
2023/01/19 15:08:11;;;;;;;5.20;4.80;;;6.10;36.20;;;;;;10506129;28;20228;-78
2023/01/19 15:13:20;;;;;;;6.73;5.53;;;6.10;36.10;;;;;;10500300;28;20737;-79
2023/01/19 15:18:26;;;;;;;7.07;6.00;;;6.20;35.80;;;;;;10504652;28;20284;-79
2023/01/19 15:23:29;;;;;;;6.10;5.50;;;6.20;35.70;;;;;;10502222;28;20641;-79
2023/01/19 15:28:34;;;;;;;6.43;5.83;;;6.30;35.90;;;;;;10500437;28;20738;-79
2023/01/19 15:33:37;;;;;;;6.43;5.83;;;6.20;35.60;;;;;;10498151;28;20236;-79
2023/01/19 15:38:40;;;;;;;6.77;6.17;;;6.30;35.80;;;;;;10496680;28;20718;-78
2023/01/19 15:43:46;;;;;;;8.27;7.43;;;6.30;36.00;;;;;;10491777;28;20228;-79
2023/01/19 15:48:51;;;;;;;8.13;7.17;;;6.30;35.70;;;;;;10500087;28;20224;-80
2023/01/19 15:53:55;;;;;;;7.50;6.70;;;6.30;35.90;;;;;;10493435;28;20282;-78
2023/01/19 15:59:01;;;;;;;6.93;6.10;;;6.30;36.00;;;;;;10495747;28;20308;-78
2023/01/19 16:04:08;;;;;;;6.67;5.97;;;6.30;35.90;;;;;;10500549;28;20228;-79
2023/01/19 16:09:15;;;;;;;6.83;6.20;;;6.30;36.00;;;;;;10499695;28;20303;-79
2023/01/19 16:14:20;;;;;;;7.10;6.40;;;6.30;36.10;;;;;;10509335;28;20235;-79
2023/01/19 16:19:25;;;;;;;7.27;6.57;;;6.30;36.00;;;;;;10498396;28;20263;-78
2023/01/19 16:24:29;;;;;;;6.33;5.73;;;6.30;35.90;;;;;;10493706;28;20228;-79
2023/01/19 16:29:34;;;;;;;6.07;5.47;;;6.30;35.70;;;;;;10492731;28;20220;-78
2023/01/19 16:34:37;;;;;;;6.33;5.67;;;6.30;35.30;;;;;;10488181;28;20232;-77
2023/01/19 16:39:42;;;;;;;9.10;7.93;;;6.20;35.40;;;;;;10489965;28;20224;-77
2023/01/19 16:44:47;;;;;;;9.00;8.00;;;6.10;35.60;;;;;;10486646;28;20232;-77
2023/01/19 16:49:51;;;;;;;16.97;15.57;;;6.10;35.70;;;;;;10486363;28;20724;-76
2023/01/19 16:54:54;;;;;;;12.33;11.17;;;6.10;35.80;;;;;;10486904;28;20224;-77
2023/01/19 16:59:59;;;;;;;9.07;8.17;;;6.10;35.90;;;;;;10478906;28;20232;-78
2023/01/19 17:05:03;;;;;;;10.07;8.50;;;6.10;35.60;;;;;;10482296;28;20236;-78
2023/01/19 17:10:07;;;;;;;8.40;7.60;;;6.10;35.50;;;;;;10485151;28;20313;-77
2023/01/19 17:15:13;;;;;;;7.90;6.40;;;6.10;35.30;;;;;;10489354;28;20244;-76
2023/01/19 17:20:16;;;;;;;7.13;6.43;;;6.00;35.00;;;;;;10497175;28;20239;-75
2023/01/19 17:25:20;;;;;;;5.87;5.27;;;5.90;35.10;;;;;;10498466;28;20232;-76
2023/01/19 17:30:24;;;;;;;5.60;5.10;;;5.80;35.00;;;;;;10497663;28;20235;-75
2023/01/19 17:35:27;;;;;;;6.90;6.20;;;5.70;35.10;;;;;;10498048;28;20259;-76
2023/01/19 17:40:31;;;;;;;6.67;6.07;;;5.60;35.40;;;;;;10497519;28;20231;-76
2023/01/19 17:45:36;;;;;;;9.70;8.33;;;5.50;35.50;;;;;;10495636;28;20323;-76
2023/01/19 17:50:40;;;;;;;9.13;7.90;;;5.50;35.40;;;;;;10494956;28;20228;-77
2023/01/19 17:55:43;;;;;;;6.60;5.97;;;5.40;35.60;;;;;;10497357;28;20228;-78
2023/01/19 18:00:47;;;;;;;6.67;6.07;;;5.40;36.30;;;;;;10498588;28;20220;-78
2023/01/19 18:05:54;;;;;;;13.53;10.00;;;5.30;35.50;;;;;;10493895;28;20231;-78
2023/01/19 18:10:59;;;;;;;8.40;7.30;;;5.30;35.40;;;;;;10499582;28;20235;-76
2023/01/19 18:16:10;;;;;;;7.00;5.90;;;5.20;35.70;;;;;;10496956;28;20228;-77
2023/01/19 18:21:14;;;;;;;6.93;6.23;;;5.10;35.50;;;;;;10496846;28;20232;-77
2023/01/19 18:26:20;;;;;;;7.27;6.37;;;5.20;35.90;;;;;;10495044;28;20224;-76
2023/01/19 18:31:26;;;;;;;6.70;6.10;;;5.10;35.80;;;;;;10496378;28;20677;-77
2023/01/19 18:36:31;;;;;;;8.50;7.40;;;5.10;35.60;;;;;;10491617;28;20327;-76
2023/01/19 18:41:39;;;;;;;7.83;6.63;;;5.20;35.80;;;;;;10493004;28;20256;-77
2023/01/19 18:46:43;;;;;;;6.60;5.37;;;5.20;35.90;;;;;;10484999;28;20228;-76
2023/01/19 18:51:46;;;;;;;6.53;5.93;;;5.20;35.80;;;;;;10484286;28;20232;-75
2023/01/19 18:56:50;;;;;;;6.30;5.40;;;5.10;35.90;;;;;;10485478;28;20236;-76
2023/01/19 19:01:54;;;;;;;6.33;5.10;;;5.10;35.90;;;;;;10485092;28;20728;-76
2023/01/19 19:06:58;;;;;;;6.97;6.23;;;5.20;35.60;;;;;;10484445;28;20229;-76
2023/01/19 19:12:01;;;;;;;6.67;6.07;;;5.10;35.70;;;;;;10490259;28;20228;-76
2023/01/19 19:17:06;;;;;;;15.97;9.97;;;5.10;35.70;;;;;;10492167;28;20228;-75
2023/01/19 19:22:09;;;;;;;9.47;7.30;;;5.00;35.70;;;;;;10492642;28;20624;-79
2023/01/19 19:27:13;;;;;;;7.40;6.60;;;4.90;35.80;;;;;;10494708;28;20224;-79
2023/01/19 19:32:19;;;;;;;6.80;6.17;;;4.90;35.90;;;;;;10494382;28;20723;-77
2023/01/19 19:37:22;;;;;;;6.57;5.97;;;4.90;35.90;;;;;;10495810;28;20259;-74
2023/01/19 19:42:27;;;;;;;6.03;5.43;;;4.90;35.90;;;;;;10496644;28;20242;-77
2023/01/19 19:47:32;;;;;;;6.00;5.40;;;4.90;36.00;;;;;;10494254;28;20239;-76
2023/01/19 19:52:38;;;;;;;6.30;5.73;;;4.90;35.90;;;;;;10494393;28;20243;-77
2023/01/19 19:57:41;;;;;;;7.07;6.37;;;4.90;35.80;;;;;;10492663;28;20603;-76
2023/01/19 20:02:46;;;;;;;7.00;5.93;;;4.90;36.00;;;;;;10493437;28;20252;-76
2023/01/19 20:07:49;;;;;;;6.13;5.53;;;4.90;36.00;;;;;;10496423;28;20224;-76
2023/01/19 20:12:52;;;;;;;6.27;5.43;;;4.90;36.10;;;;;;10502310;28;20232;-77
2023/01/19 20:17:57;;;;;;;6.67;6.07;;;4.90;35.90;;;;;;10496987;28;20259;-76
2023/01/19 20:23:01;;;;;;;6.60;5.90;;;4.90;35.80;;;;;;10496758;28;20228;-77
2023/01/19 20:28:04;;;;;;;5.47;4.93;;;5.00;36.00;;;;;;10491274;28;20224;-76
2023/01/19 20:33:09;;;;;;;6.73;5.23;;;4.90;35.90;;;;;;10485799;28;20236;-76
2023/01/19 20:38:12;;;;;;;7.43;4.73;;;5.00;35.80;;;;;;10487433;28;20236;-74
2023/01/19 20:43:15;;;;;;;6.63;5.70;;;5.00;35.80;;;;;;10486139;28;20232;-78
2023/01/19 20:48:20;;;;;;;5.77;5.27;;;5.00;35.70;;;;;;10486080;28;20224;-74
2023/01/19 20:53:23;;;;;;;7.90;7.17;;;5.00;35.60;;;;;;10480208;28;20489;-74
2023/01/19 20:58:26;;;;;;;7.07;6.47;;;5.10;35.80;;;;;;10481060;28;20228;-76
2023/01/19 21:03:33;;;;;;;6.47;5.83;;;5.10;35.80;;;;;;10479860;28;20243;-75
2023/01/19 21:08:37;;;;;;;5.47;4.93;;;5.10;35.40;;;;;;10476649;28;20228;-76
2023/01/19 21:13:40;;;;;;;6.13;5.33;;;5.10;35.40;;;;;;10474455;28;20246;-76
2023/01/19 21:18:45;;;;;;;5.70;5.20;;;5.20;35.40;;;;;;10479630;28;20236;-74
2023/01/19 21:23:49;;;;;;;5.77;5.27;;;5.10;35.20;;;;;;10480817;28;20229;-74
2023/01/19 21:28:52;;;;;;;5.67;5.13;;;5.20;35.50;;;;;;10482522;28;20228;-73
2023/01/19 21:33:57;;;;;;;6.20;5.57;;;5.20;35.60;;;;;;10483513;28;20255;-75
2023/01/19 21:39:00;;;;;;;7.53;6.60;;;5.20;35.60;;;;;;10481988;28;20254;-74
2023/01/19 21:44:03;;;;;;;9.57;7.83;;;5.20;35.70;;;;;;10484065;28;20254;-75
2023/01/19 21:49:13;;;;;;;8.20;6.20;;;5.30;35.80;;;;;;10487064;28;20228;-75
2023/01/19 21:54:16;;;;;;;8.70;6.33;;;5.30;35.80;;;;;;10491334;28;20236;-75
2023/01/19 21:59:19;;;;;;;8.13;7.37;;;5.30;35.90;;;;;;10490031;28;20243;-75
2023/01/19 22:04:24;;;;;;;7.30;6.37;;;5.40;35.90;;;;;;10490283;28;20228;-75
2023/01/19 22:09:27;;;;;;;8.10;7.00;;;5.40;35.90;;;;;;10490256;28;20240;-75
2023/01/19 22:14:30;;;;;;;8.63;7.23;;;5.40;35.80;;;;;;10482005;28;20228;-73
2023/01/19 22:19:35;;;;;;;7.60;6.60;;;5.40;35.80;;;;;;10492478;28;20227;-78
2023/01/19 22:24:38;;;;;;;6.93;6.13;;;5.40;35.60;;;;;;10497250;28;20228;-79
2023/01/19 22:29:41;;;;;;;7.33;6.30;;;5.40;35.60;;;;;;10496469;28;20212;-79
2023/01/19 22:34:47;;;;;;;7.63;6.43;;;5.50;35.60;;;;;;10498727;28;20227;-79
2023/01/19 22:39:50;;;;;;;7.27;6.20;;;5.40;35.60;;;;;;10496411;28;20220;-80
2023/01/19 22:44:53;;;;;;;6.70;6.10;;;5.40;35.80;;;;;;10497185;28;20235;-79
2023/01/19 22:49:58;;;;;;;6.90;6.20;;;5.40;35.90;;;;;;10501281;28;20630;-78
2023/01/19 22:55:02;;;;;;;7.23;6.43;;;5.40;36.00;;;;;;10499066;28;20327;-79
2023/01/19 23:00:07;;;;;;;6.80;6.20;;;5.40;35.80;;;;;;10502681;28;20238;-78
2023/01/19 23:05:12;;;;;;;6.60;5.87;;;5.40;35.70;;;;;;10501052;28;20227;-79
2023/01/19 23:10:16;;;;;;;6.87;6.20;;;5.40;35.70;;;;;;10501577;28;20227;-79
2023/01/19 23:15:20;;;;;;;6.13;5.43;;;5.40;35.80;;;;;;10501682;28;20230;-78
2023/01/19 23:20:24;;;;;;;5.70;5.20;;;5.30;35.60;;;;;;10500780;28;20220;-79
2023/01/19 23:25:27;;;;;;;6.20;5.60;;;5.20;35.60;;;;;;10501932;28;20234;-79
2023/01/19 23:30:30;;;;;;;7.70;6.30;;;5.20;35.90;;;;;;10495867;28;20220;-78
2023/01/19 23:35:35;;;;;;;7.50;6.23;;;5.10;36.00;;;;;;10501331;28;20726;-79
2023/01/19 23:40:39;;;;;;;6.67;5.97;;;5.10;35.80;;;;;;10496256;28;20224;-79
2023/01/19 23:45:42;;;;;;;7.17;6.47;;;5.10;35.60;;;;;;10500249;28;20224;-79
2023/01/19 23:50:46;;;;;;;7.07;6.37;;;5.10;35.60;;;;;;10500700;28;20220;-79
2023/01/19 23:55:49;;;;;;;6.90;6.13;;;5.10;35.70;;;;;;10500445;28;20231;-79
